Time;durP1;ratioP1;P1;durP2;ratioP2;P2;SDS_P1;SDS_P2;PMS_P1;PMS_P2;Temp;Humidity;BMP_temperature;BMP_pressure;BME280_temperature;BME280_humidity;BME280_pressure;Samples;Min_cycle;Max_cycle;Signal;HPM_P1;HPM_P2
2020/12/10 00:03:31;;;;;;;41.95;22.83;;;0.90;99.90;;;;;;9969268;29;20068;-92
2020/12/10 00:08:33;;;;;;;42.10;24.00;;;0.80;99.90;;;;;;9969682;29;20070;-91
2020/12/10 00:13:35;;;;;;;42.60;22.55;;;0.80;99.90;;;;;;9969841;29;20062;-92
2020/12/10 00:18:36;;;;;;;38.17;20.95;;;0.80;99.90;;;;;;9984944;29;20054;-92
2020/12/10 00:23:38;;;;;;;50.05;25.15;;;0.70;99.90;;;;;;9969776;29;20054;-92
2020/12/10 00:28:39;;;;;;;39.50;23.02;;;0.60;99.90;;;;;;9967688;29;20087;-92
2020/12/10 00:33:41;;;;;;;34.55;20.85;;;0.50;99.90;;;;;;9969086;29;20063;-92
2020/12/10 00:38:42;;;;;;;35.90;20.60;;;0.50;99.90;;;;;;9984375;29;20062;-92
2020/12/10 00:43:44;;;;;;;35.60;19.58;;;0.30;99.90;;;;;;9969216;29;20058;-92
2020/12/10 00:48:45;;;;;;;43.25;23.63;;;0.30;99.90;;;;;;9969250;29;20137;-92
2020/12/10 00:53:47;;;;;;;33.08;18.42;;;0.20;99.90;;;;;;9968918;29;20085;-92
2020/12/10 00:58:48;;;;;;;38.80;22.63;;;0.10;99.90;;;;;;10072195;29;20061;-91
2020/12/10 01:03:50;;;;;;;40.10;21.70;;;0.10;99.90;;;;;;10021530;29;20106;-92
2020/12/10 01:08:51;;;;;;;44.42;24.00;;;0.10;99.90;;;;;;10050732;29;20068;-91
2020/12/10 01:13:54;;;;;;;36.40;22.45;;;0.10;99.90;;;;;;10020553;29;20058;-91
2020/12/10 01:18:56;;;;;;;46.22;25.95;;;0.00;99.90;;;;;;10021213;29;20053;-91
2020/12/10 01:23:59;;;;;;;38.53;21.95;;;0.00;99.90;;;;;;10020998;29;20089;-91
2020/12/10 01:29:04;;;;;;;36.53;20.75;;;0.00;99.90;;;;;;10034794;29;20398;-91
2020/12/10 01:34:06;;;;;;;51.17;25.67;;;0.00;99.90;;;;;;10006191;29;20070;-91
2020/12/10 01:39:07;;;;;;;40.88;20.65;;;-0.10;99.90;;;;;;10035294;29;20049;-91
2020/12/10 01:44:14;;;;;;;48.80;25.25;;;-0.10;99.90;;;;;;10004478;29;20061;-90
2020/12/10 01:49:15;;;;;;;45.85;23.63;;;-0.10;99.90;;;;;;10035268;29;20061;-90
2020/12/10 01:54:17;;;;;;;46.38;23.10;;;-0.20;99.90;;;;;;10004763;29;20505;-91
2020/12/10 01:59:19;;;;;;;37.78;19.92;;;-0.30;99.90;;;;;;10034719;29;20065;-91
2020/12/10 02:04:36;;;;;;;40.47;20.88;;;-0.30;99.90;;;;;;10019774;29;20064;-91
2020/12/10 02:09:38;;;;;;;35.63;19.90;;;-0.40;99.90;;;;;;10005533;29;20067;-92
2020/12/10 02:14:39;;;;;;;33.33;19.48;;;-0.50;99.90;;;;;;10019112;29;20148;-91
2020/12/10 02:19:41;;;;;;;41.90;21.17;;;-0.50;99.90;;;;;;10034362;29;20053;-91
2020/12/10 02:24:42;;;;;;;41.53;22.17;;;-0.70;99.90;;;;;;10014454;29;20406;-91
2020/12/10 02:29:44;;;;;;;35.30;19.75;;;-0.70;99.90;;;;;;10011435;29;20069;-91
2020/12/10 02:34:45;;;;;;;52.92;24.15;;;-0.70;99.90;;;;;;10010569;29;20484;-91
2020/12/10 02:39:47;;;;;;;39.25;20.17;;;-0.60;99.90;;;;;;10010052;29;20065;-91
2020/12/10 02:44:48;;;;;;;45.75;20.88;;;-0.70;99.90;;;;;;10039879;29;20062;-91
2020/12/10 02:49:52;;;;;;;40.83;21.25;;;-0.80;99.90;;;;;;9995003;29;20510;-91
2020/12/10 02:54:53;;;;;;;38.75;21.98;;;-0.80;99.90;;;;;;10010106;29;20072;-91
2020/12/10 02:59:55;;;;;;;38.50;20.33;;;-0.70;99.90;;;;;;9994396;29;20136;-91
2020/12/10 03:04:57;;;;;;;42.83;21.63;;;-0.80;99.90;;;;;;10034637;29;20064;-90
2020/12/10 03:09:59;;;;;;;38.38;22.08;;;-0.90;99.90;;;;;;9994033;29;20089;-90
2020/12/10 03:15:00;;;;;;;41.45;19.70;;;-0.90;99.90;;;;;;9994120;29;20061;-91
2020/12/10 03:20:03;;;;;;;41.15;23.10;;;-0.90;99.90;;;;;;9993012;29;20058;-91
2020/12/10 03:25:04;;;;;;;38.88;19.30;;;-1.00;99.90;;;;;;9993538;29;20107;-91
2020/12/10 03:30:06;;;;;;;48.60;23.08;;;-1.00;99.90;;;;;;9993917;29;20062;-91
2020/12/10 03:35:08;;;;;;;37.10;19.25;;;-1.00;99.90;;;;;;9992810;29;20417;-91
2020/12/10 03:40:09;;;;;;;36.88;20.95;;;-1.00;99.90;;;;;;9993048;29;20062;-92
2020/12/10 03:45:11;;;;;;;41.78;20.48;;;-1.10;99.90;;;;;;9958511;29;20055;-92
2020/12/10 03:50:12;;;;;;;37.83;20.30;;;-1.10;99.90;;;;;;9955118;29;20091;-91
2020/12/10 03:55:14;;;;;;;47.15;21.73;;;-1.10;99.90;;;;;;9962941;29;20149;-92
2020/12/10 04:00:15;;;;;;;33.08;18.25;;;-1.10;99.90;;;;;;9932064;29;20061;-92
2020/12/10 04:05:16;;;;;;;32.70;16.88;;;-1.10;99.90;;;;;;9930505;29;20503;-92
2020/12/10 04:10:18;;;;;;;32.25;17.77;;;-1.10;99.90;;;;;;9939324;29;20415;-92
2020/12/10 04:15:19;;;;;;;34.17;18.58;;;-1.10;99.90;;;;;;9954656;29;20068;-91
2020/12/10 04:20:21;;;;;;;;;;;-1.00;99.90;;;;;;9955180;29;20050;-91
2020/12/10 04:25:22;;;;;;;35.15;17.80;;;-0.90;99.90;;;;;;9954320;29;19924;-91
2020/12/10 04:30:24;;;;;;;32.40;18.55;;;-1.00;99.90;;;;;;9952243;29;20059;-91
2020/12/10 04:35:25;;;;;;;27.10;16.30;;;-1.10;99.90;;;;;;9938973;29;20058;-91
2020/12/10 04:40:29;;;;;;;45.47;21.55;;;-1.10;99.90;;;;;;9955199;29;20066;-92
2020/12/10 04:45:31;;;;;;;33.08;18.63;;;-1.30;99.90;;;;;;9856318;24;20056;-92
2020/12/10 04:50:37;;;;;;;29.20;17.48;;;-1.20;99.90;;;;;;9856867;30;20112;-91
2020/12/10 04:55:39;;;;;;;30.83;17.98;;;-1.20;99.90;;;;;;9842649;30;20064;-92
2020/12/10 05:00:42;;;;;;;47.88;23.02;;;-1.20;99.90;;;;;;9842033;30;20059;-92
2020/12/10 05:05:44;;;;;;;33.75;18.23;;;-1.20;99.90;;;;;;9842143;30;20063;-91
2020/12/10 05:10:46;;;;;;;35.90;17.77;;;-1.20;99.90;;;;;;9842108;30;20148;-92
2020/12/10 05:15:47;;;;;;;36.55;18.65;;;-1.30;99.90;;;;;;9843250;30;20142;-91
2020/12/10 05:20:55;;;;;;;45.47;23.52;;;-1.30;99.90;;;;;;9827138;30;20143;-90
2020/12/10 05:25:57;;;;;;;37.30;19.95;;;-1.30;99.90;;;;;;9842852;30;20062;-91
2020/12/10 05:31:05;;;;;;;34.55;18.63;;;-1.30;99.90;;;;;;9856323;30;20090;-91
2020/12/10 05:36:11;;;;;;;45.00;21.73;;;-1.40;99.90;;;;;;9842328;30;20074;-91
2020/12/10 05:41:22;;;;;;;36.80;19.33;;;-1.50;99.90;;;;;;9841935;30;20446;-92
2020/12/10 05:46:25;;;;;;;43.38;20.88;;;-1.40;99.90;;;;;;9910976;30;20089;-92
2020/12/10 05:51:29;;;;;;;47.92;24.00;;;-1.50;99.90;;;;;;9884426;30;20124;-92
2020/12/10 05:56:39;;;;;;;43.97;24.80;;;-1.50;99.90;;;;;;9880676;30;20063;-92
2020/12/10 06:01:43;;;;;;;52.22;26.55;;;-1.40;99.90;;;;;;9869975;30;20056;-92
2020/12/10 06:06:51;;;;;;;46.78;23.05;;;-1.50;99.90;;;;;;9863673;30;20063;-92
2020/12/10 06:12:04;;;;;;;52.72;23.83;;;-1.50;99.90;;;;;;9848157;30;20098;-91
2020/12/10 06:17:11;;;;;;;43.00;23.63;;;-1.50;99.90;;;;;;9846973;30;20082;-91
2020/12/10 06:22:31;;;;;;;41.38;21.48;;;-1.50;99.90;;;;;;9861734;30;20511;-91
2020/12/10 06:27:34;;;;;;;35.97;20.48;;;-1.50;99.90;;;;;;9898932;30;20146;-91
2020/12/10 06:32:50;;;;;;;53.72;24.63;;;-1.60;99.90;;;;;;9897562;30;20059;-90
2020/12/10 06:37:53;;;;;;;37.13;19.67;;;-1.70;99.90;;;;;;9913274;30;20150;-90
2020/12/10 06:42:55;;;;;;;36.95;21.08;;;-1.70;99.90;;;;;;9919850;29;20087;-90
2020/12/10 06:47:56;;;;;;;33.92;17.38;;;-1.80;99.90;;;;;;9934598;29;20086;-90
2020/12/10 06:53:23;;;;;;;39.00;20.80;;;-1.80;99.90;;;;;;9933017;29;20418;-90
2020/12/10 06:58:42;;;;;;;43.75;23.20;;;-1.90;99.90;;;;;;9905836;29;20058;-89
2020/12/10 07:03:44;;;;;;;47.00;22.98;;;-1.90;99.90;;;;;;9922060;29;20087;-89
2020/12/10 07:08:59;;;;;;;33.10;18.17;;;-1.80;99.90;;;;;;9881599;30;20066;-89
2020/12/10 07:14:20;;;;;;;42.97;22.40;;;-1.80;99.90;;;;;;9895858;30;20059;-89
2020/12/10 07:19:23;;;;;;;38.58;21.63;;;-1.80;99.90;;;;;;9868411;30;20073;-89
2020/12/10 07:24:26;;;;;;;54.30;26.75;;;-1.80;99.90;;;;;;9866075;30;20573;-89
2020/12/10 07:29:31;;;;;;;61.45;28.15;;;-1.80;99.90;;;;;;9880287;30;20066;-90
2020/12/10 07:34:41;;;;;;;47.20;25.80;;;-1.70;99.90;;;;;;9866623;30;20510;-89
2020/12/10 07:39:43;;;;;;;47.80;25.55;;;-1.60;99.90;;;;;;9895155;30;20055;-90
2020/12/10 07:44:46;;;;;;;58.33;29.50;;;-1.60;99.90;;;;;;9892991;30;20059;-89
2020/12/10 07:49:48;;;;;;;46.63;24.98;;;-1.50;99.90;;;;;;9866156;30;20063;-90
2020/12/10 07:54:53;;;;;;;49.03;26.45;;;-1.60;99.90;;;;;;9911401;29;20073;-90
2020/12/10 08:00:09;;;;;;;52.40;25.98;;;-1.60;99.90;;;;;;9924992;29;20065;-90
2020/12/10 08:05:18;;;;;;;56.35;27.65;;;-1.60;99.90;;;;;;9954663;29;20056;-91
2020/12/10 08:10:33;;;;;;;51.38;27.02;;;-1.60;99.90;;;;;;9954440;29;20098;-91
2020/12/10 08:15:36;;;;;;;45.13;24.25;;;-1.50;99.90;;;;;;9944297;29;20063;-90
2020/12/10 08:20:50;;;;;;;51.65;26.05;;;-1.40;99.90;;;;;;9967640;29;20069;-90
2020/12/10 08:26:14;;;;;;;45.88;25.08;;;-1.50;99.90;;;;;;9928926;29;20057;-90
2020/12/10 08:31:37;;;;;;;58.42;26.85;;;-1.40;99.90;;;;;;9894514;30;20063;-91
2020/12/10 08:36:38;;;;;;;59.72;27.58;;;-1.40;99.90;;;;;;9899033;30;20071;-91
2020/12/10 08:41:40;;;;;;;73.00;33.00;;;-1.30;99.90;;;;;;9896401;30;20146;-91
2020/12/10 08:46:42;;;;;;;;;;;-1.30;99.90;;;;;;9894918;30;20069;-91
2020/12/10 08:51:46;;;;;;;50.83;26.65;;;-1.20;99.90;;;;;;9895202;30;20024;-91
2020/12/10 08:57:10;;;;;;;59.20;30.58;;;-1.10;99.90;;;;;;9898553;30;20475;-92
2020/12/10 09:02:26;;;;;;;47.50;26.38;;;-1.10;99.90;;;;;;9897909;29;20047;-91
2020/12/10 09:08:02;;;;;;;57.65;29.40;;;-1.10;99.90;;;;;;9901338;29;20059;-91
2020/12/10 09:13:23;;;;;;;56.85;28.30;;;-1.10;99.90;;;;;;9932868;29;20070;-91
2020/12/10 09:18:25;;;;;;;52.60;28.42;;;-1.10;99.90;;;;;;9920436;29;20137;-90
2020/12/10 09:23:27;;;;;;;59.03;28.95;;;-0.90;99.90;;;;;;9893553;29;20503;-92
2020/12/10 09:28:29;;;;;;;66.28;34.28;;;-0.80;99.90;;;;;;9922521;29;20085;-91
2020/12/10 09:33:31;;;;;;;;;;;-0.80;99.90;;;;;;9906844;29;20146;-92
2020/12/10 09:38:38;;;;;;;56.83;31.27;;;-0.80;99.90;;;;;;9920245;29;19994;-92
2020/12/10 09:43:40;;;;;;;56.67;29.60;;;-0.60;99.90;;;;;;9940193;29;20070;-90
2020/12/10 09:48:42;;;;;;;58.72;32.08;;;-0.70;99.90;;;;;;9917256;29;20063;-92
2020/12/10 09:53:48;;;;;;;;;;;-0.50;99.90;;;;;;9932004;29;20558;-92
2020/12/10 09:58:51;;;;;;;66.55;32.15;;;-0.40;99.90;;;;;;9916831;29;19936;-92
2020/12/10 10:03:52;;;;;;;55.70;31.67;;;-0.30;99.90;;;;;;9867021;29;20063;-92
2020/12/10 10:08:54;;;;;;;57.13;30.92;;;-0.10;99.90;;;;;;9863435;30;20063;-93
2020/12/10 10:13:55;;;;;;;48.63;27.02;;;-0.20;99.90;;;;;;9878848;30;20150;-93
2020/12/10 10:19:20;;;;;;;51.70;28.08;;;-0.20;99.90;;;;;;9863866;30;20063;-92
2020/12/10 10:24:21;;;;;;;58.28;30.90;;;-0.10;99.90;;;;;;9866907;30;20090;-93
2020/12/10 10:29:24;;;;;;;61.95;31.50;;;-0.10;99.90;;;;;;9921313;29;20070;-94
2020/12/10 10:34:48;;;;;;;65.68;32.63;;;-0.10;99.90;;;;;;9932087;29;20474;-94
2020/12/10 10:39:54;;;;;;;52.28;27.67;;;0.00;99.90;;;;;;9919740;29;20059;-94
2020/12/10 10:44:55;;;;;;;54.78;29.40;;;0.00;99.90;;;;;;9934088;24;20099;-88
2020/12/10 10:49:57;;;;;;;53.85;30.02;;;0.10;99.90;;;;;;9983452;29;20533;-88
2020/12/10 10:55:11;;;;;;;59.03;32.17;;;0.10;99.90;;;;;;9983404;29;20501;-88
2020/12/10 11:00:13;;;;;;;57.60;32.15;;;0.20;99.90;;;;;;9982406;29;20521;-88
2020/12/10 11:05:18;;;;;;;72.90;35.90;;;0.10;99.90;;;;;;9939707;29;20516;-89
2020/12/10 11:10:41;;;;;;;58.67;32.08;;;0.20;99.90;;;;;;9945345;29;20086;-89
2020/12/10 11:15:43;;;;;;;48.55;28.35;;;0.30;99.90;;;;;;9930650;29;20073;-89
2020/12/10 11:20:47;;;;;;;;;;;0.40;99.90;;;;;;9930877;29;20055;-89
2020/12/10 11:25:50;;;;;;;56.05;30.33;;;0.40;99.90;;;;;;9930244;29;20016;-89
2020/12/10 11:30:52;;;;;;;51.53;28.98;;;0.40;99.90;;;;;;9945309;29;20475;-89
2020/12/10 11:35:54;;;;;;;51.88;28.90;;;0.40;99.90;;;;;;9980869;29;20452;-88
2020/12/10 11:40:56;;;;;;;56.42;30.48;;;0.50;99.90;;;;;;9966583;29;20145;-89
2020/12/10 11:46:01;;;;;;;50.67;26.90;;;0.50;99.90;;;;;;9967062;29;20557;-89
2020/12/10 11:51:10;;;;;;;58.17;31.15;;;0.60;99.90;;;;;;9969802;29;20051;-89
2020/12/10 11:56:15;;;;;;;55.28;28.52;;;0.60;99.90;;;;;;9982930;29;20069;-89
2020/12/10 12:02:04;;;;;;;53.33;28.33;;;0.70;99.90;;;;;;9966388;29;20063;-89
2020/12/10 12:07:05;;;;;;;46.92;27.08;;;0.70;99.90;;;;;;9944284;29;20067;-89
2020/12/10 12:12:11;;;;;;;49.47;28.88;;;0.70;99.90;;;;;;9929481;29;20078;-89
2020/12/10 12:17:35;;;;;;;57.55;31.63;;;0.80;99.90;;;;;;9929060;29;20063;-89
2020/12/10 12:22:39;;;;;;;50.08;27.20;;;0.80;99.90;;;;;;9941408;29;20088;-89
2020/12/10 12:27:55;;;;;;;49.67;28.55;;;0.80;99.90;;;;;;9997873;29;20145;-90
2020/12/10 12:32:57;;;;;;;51.65;26.77;;;0.80;99.90;;;;;;9967813;29;20055;-89
2020/12/10 12:38:10;;;;;;;50.47;28.77;;;0.80;99.90;;;;;;9997421;29;20055;-89
2020/12/10 12:43:12;;;;;;;57.47;32.17;;;0.80;99.90;;;;;;9995365;29;20483;-89
2020/12/10 12:48:13;;;;;;;53.22;30.35;;;0.80;99.90;;;;;;9967821;29;20058;-89
2020/12/10 12:53:14;;;;;;;52.17;29.00;;;0.80;99.90;;;;;;9957412;29;20064;-89
2020/12/10 12:58:18;;;;;;;50.78;29.77;;;0.70;99.90;;;;;;9974840;29;20059;-89
2020/12/10 13:03:19;;;;;;;52.97;29.83;;;0.70;99.90;;;;;;9974709;29;20055;-90
2020/12/10 13:08:23;;;;;;;50.85;27.75;;;0.80;99.90;;;;;;9989787;29;20510;-89
2020/12/10 13:13:24;;;;;;;47.78;26.35;;;0.80;99.90;;;;;;9974689;29;20077;-89
2020/12/10 13:18:27;;;;;;;47.92;29.80;;;0.80;99.90;;;;;;9959556;29;20089;-89
2020/12/10 13:24:04;;;;;;;51.85;28.42;;;0.70;99.90;;;;;;9974487;29;20077;-89
2020/12/10 13:29:05;;;;;;;48.78;26.48;;;0.70;99.90;;;;;;10004511;29;20062;-89
2020/12/10 13:34:07;;;;;;;;;;;0.80;99.90;;;;;;9989255;29;20081;-89
2020/12/10 13:39:30;;;;;;;58.77;31.00;;;0.70;99.90;;;;;;9973945;29;19925;-90
2020/12/10 13:44:39;;;;;;;51.30;28.20;;;0.70;99.90;;;;;;10003596;29;20133;-89
2020/12/10 13:49:41;;;;;;;50.88;27.83;;;0.70;99.90;;;;;;9989071;29;20073;-89
2020/12/10 13:55:28;;;;;;;54.22;29.13;;;0.70;99.90;;;;;;9976200;29;20072;-89
2020/12/10 14:00:30;;;;;;;51.67;28.48;;;0.70;99.90;;;;;;9974300;29;20065;-90
2020/12/10 14:05:33;;;;;;;;;;;0.70;99.90;;;;;;9972954;29;20418;-89
2020/12/10 14:10:35;;;;;;;46.83;27.30;;;0.70;99.90;;;;;;9957709;29;20262;-89
2020/12/10 14:15:44;;;;;;;49.30;27.23;;;0.70;99.90;;;;;;9973143;29;20430;-90
2020/12/10 14:20:54;;;;;;;59.58;31.73;;;0.70;99.90;;;;;;9958319;29;20058;-90
2020/12/10 14:26:11;;;;;;;52.63;29.20;;;0.70;99.90;;;;;;9975100;29;20417;-90
2020/12/10 14:31:20;;;;;;;50.03;26.70;;;0.70;99.90;;;;;;9957759;29;20073;-89
2020/12/10 14:36:23;;;;;;;43.22;24.70;;;0.70;99.90;;;;;;9957312;29;20059;-91
2020/12/10 14:41:24;;;;;;;65.53;35.33;;;0.70;99.90;;;;;;9976303;29;20139;-89
2020/12/10 14:46:26;;;;;;;57.38;29.40;;;0.60;99.90;;;;;;9966285;29;20055;-89
2020/12/10 14:51:28;;;;;;;;;;;0.60;99.90;;;;;;9957153;29;20464;-90
2020/12/10 14:56:31;;;;;;;48.22;25.95;;;0.70;99.90;;;;;;9971249;29;20016;-89
2020/12/10 15:01:32;;;;;;;54.08;28.45;;;0.60;99.90;;;;;;9970946;29;20054;-89
2020/12/10 15:06:57;;;;;;;;;;;0.50;99.90;;;;;;9986163;29;20074;-89
2020/12/10 15:12:20;;;;;;;64.78;32.88;;;0.50;99.90;;;;;;9983494;29;19925;-89
2020/12/10 15:17:26;;;;;;;58.25;31.83;;;0.50;99.90;;;;;;9984549;29;20054;-89
2020/12/10 15:22:28;;;;;;;56.53;27.67;;;0.50;99.90;;;;;;9969814;29;20563;-89
2020/12/10 15:27:29;;;;;;;45.50;27.40;;;0.50;99.90;;;;;;9985880;29;20058;-90
2020/12/10 15:32:50;;;;;;;64.72;32.47;;;0.40;99.90;;;;;;9970533;29;20146;-89
2020/12/10 15:37:53;;;;;;;58.38;29.95;;;0.40;99.90;;;;;;9970177;29;20066;-91
2020/12/10 15:42:55;;;;;;;53.10;28.95;;;0.30;99.90;;;;;;9970475;29;20058;-89
2020/12/10 15:47:58;;;;;;;53.67;29.50;;;0.30;99.90;;;;;;9989577;29;20097;-89
2020/12/10 15:53:09;;;;;;;51.42;29.08;;;0.30;99.90;;;;;;9985972;29;20072;-89
2020/12/10 15:58:11;;;;;;;63.33;30.05;;;0.20;99.90;;;;;;9968535;29;20514;-89
2020/12/10 16:03:29;;;;;;;63.58;30.73;;;0.20;99.90;;;;;;9969585;29;20133;-89
2020/12/10 16:08:49;;;;;;;58.72;30.42;;;0.20;99.90;;;;;;9983781;29;20510;-89
2020/12/10 16:13:51;;;;;;;74.22;35.10;;;0.10;99.90;;;;;;9984725;29;20082;-91
2020/12/10 16:18:53;;;;;;;73.60;36.25;;;0.10;99.90;;;;;;9969036;29;20073;-89
2020/12/10 16:24:09;;;;;;;59.45;32.70;;;0.10;99.90;;;;;;9984612;29;20062;-89
2020/12/10 16:29:10;;;;;;;82.55;37.28;;;0.10;99.90;;;;;;9938337;29;20074;-88
2020/12/10 16:34:12;;;;;;;63.67;31.95;;;0.10;99.90;;;;;;9938574;29;20066;-89
2020/12/10 16:39:13;;;;;;;76.50;35.95;;;0.10;99.90;;;;;;9952672;29;20495;-88
2020/12/10 16:44:15;;;;;;;85.32;40.45;;;0.10;99.90;;;;;;9976648;24;20149;-92
2020/12/10 16:49:19;;;;;;;65.38;34.00;;;0.10;99.90;;;;;;9989639;29;20450;-90
2020/12/10 16:54:21;;;;;;;66.22;33.85;;;0.00;99.90;;;;;;9991322;29;20062;-91
2020/12/10 16:59:23;;;;;;;70.22;33.97;;;-0.10;99.90;;;;;;9960998;29;20062;-91
2020/12/10 17:04:24;;;;;;;81.22;37.88;;;-0.20;99.90;;;;;;9990712;29;20141;-90
2020/12/10 17:09:26;;;;;;;54.20;28.30;;;-0.30;99.90;;;;;;9976173;29;20087;-90
2020/12/10 17:14:29;;;;;;;63.40;30.83;;;-0.40;99.90;;;;;;9990785;29;20574;-90
2020/12/10 17:19:30;;;;;;;67.13;30.70;;;-0.40;99.90;;;;;;9983083;29;20517;-93
2020/12/10 17:24:31;;;;;;;54.58;27.88;;;-0.50;99.90;;;;;;9982210;29;20066;-91
2020/12/10 17:29:33;;;;;;;62.50;32.63;;;-0.50;99.90;;;;;;9975040;29;20085;-91
2020/12/10 17:34:34;;;;;;;46.83;26.55;;;-0.50;99.90;;;;;;9975293;29;20521;-91
2020/12/10 17:39:36;;;;;;;55.55;30.20;;;-0.40;99.90;;;;;;9995292;29;20149;-91
2020/12/10 17:44:37;;;;;;;68.68;34.15;;;-0.40;99.90;;;;;;9982126;29;20129;-91
2020/12/10 17:50:04;;;;;;;68.22;30.23;;;-0.30;99.90;;;;;;10002960;29;20089;-92
2020/12/10 17:55:11;;;;;;;79.70;37.10;;;-0.30;99.90;;;;;;10026144;29;20129;-92
2020/12/10 18:00:12;;;;;;;127.20;49.92;;;-0.30;99.90;;;;;;10019542;29;20077;-91
2020/12/10 18:05:14;;;;;;;94.55;42.47;;;-0.30;99.90;;;;;;9986790;29;20066;-91
2020/12/10 18:10:15;;;;;;;105.72;42.15;;;-0.30;99.90;;;;;;9996537;29;20459;-92
2020/12/10 18:15:17;;;;;;;95.22;42.25;;;-0.30;99.90;;;;;;9981685;29;20086;-91
2020/12/10 18:20:19;;;;;;;98.18;43.42;;;-0.30;99.90;;;;;;9981357;29;20050;-91
2020/12/10 18:25:21;;;;;;;;;;;-0.30;99.90;;;;;;9981741;29;20366;-91
2020/12/10 18:30:22;;;;;;;87.70;38.10;;;-0.30;99.90;;;;;;9995667;29;20019;-92
2020/12/10 18:35:24;;;;;;;109.88;45.55;;;-0.20;99.90;;;;;;9995615;29;20058;-91
2020/12/10 18:40:25;;;;;;;92.95;42.78;;;-0.20;99.90;;;;;;9980635;29;20057;-92
2020/12/10 18:45:27;;;;;;;117.32;49.88;;;-0.30;99.90;;;;;;9993832;29;20061;-93
2020/12/10 18:50:30;;;;;;;106.43;44.60;;;-0.30;99.90;;;;;;9994955;29;20528;-92
2020/12/10 18:55:34;;;;;;;109.30;45.05;;;-0.30;99.90;;;;;;9995786;29;20418;-91
2020/12/10 19:00:37;;;;;;;95.78;41.97;;;-0.30;99.90;;;;;;9952422;29;20085;-91
2020/12/10 19:05:38;;;;;;;112.45;45.35;;;-0.30;99.90;;;;;;9957833;29;20058;-91
2020/12/10 19:10:40;;;;;;;92.90;39.22;;;-0.40;99.90;;;;;;9943841;29;20058;-91
2020/12/10 19:15:41;;;;;;;87.97;39.70;;;-0.40;99.90;;;;;;9958202;29;20054;-91
2020/12/10 19:20:43;;;;;;;82.65;36.97;;;-0.50;99.90;;;;;;9942237;29;20066;-91
2020/12/10 19:25:44;;;;;;;82.68;38.78;;;-0.50;99.90;;;;;;9955813;29;20846;-91
2020/12/10 19:30:50;;;;;;;77.78;33.08;;;-0.50;99.90;;;;;;9957430;29;20138;-91
2020/12/10 19:35:51;;;;;;;73.03;34.85;;;-0.60;99.90;;;;;;9941706;29;20058;-92
2020/12/10 19:40:53;;;;;;;78.43;34.38;;;-0.60;99.90;;;;;;9940669;29;20066;-92
2020/12/10 19:45:56;;;;;;;128.15;47.58;;;-0.70;99.90;;;;;;9940270;29;20502;-93
2020/12/10 19:51:01;;;;;;;72.32;32.38;;;-0.70;99.90;;;;;;9941772;29;20093;-92
2020/12/10 19:56:03;;;;;;;76.60;34.47;;;-0.70;99.90;;;;;;9955756;29;20137;-91
2020/12/10 20:01:04;;;;;;;;;;;-0.80;99.90;;;;;;9988760;29;20570;-92
2020/12/10 20:06:14;;;;;;;101.38;40.13;;;-0.80;99.90;;;;;;9992402;29;20018;-92
2020/12/10 20:11:17;;;;;;;80.13;37.38;;;-0.90;99.90;;;;;;9993152;29;20162;-92
2020/12/10 20:16:19;;;;;;;70.32;33.70;;;-0.90;99.90;;;;;;9978399;29;20107;-92
2020/12/10 20:21:22;;;;;;;82.97;35.40;;;-0.90;99.90;;;;;;9992174;29;20058;-92
2020/12/10 20:26:34;;;;;;;64.82;33.17;;;-0.90;99.90;;;;;;10007034;29;20054;-92
2020/12/10 20:31:40;;;;;;;66.68;32.30;;;-0.80;99.90;;;;;;9992549;29;20062;-92
2020/12/10 20:36:44;;;;;;;67.88;31.27;;;-0.80;99.90;;;;;;9991470;29;20091;-92
2020/12/10 20:41:45;;;;;;;55.78;28.38;;;-0.80;99.90;;;;;;9976032;29;20058;-92
2020/12/10 20:46:50;;;;;;;59.60;29.25;;;-0.80;99.90;;;;;;9968989;29;20054;-92
2020/12/10 20:51:52;;;;;;;55.53;26.92;;;-0.90;99.90;;;;;;9954312;29;20114;-91
2020/12/10 20:56:53;;;;;;;94.55;48.63;;;-0.80;99.90;;;;;;9987837;29;20138;-91
2020/12/10 21:01:55;;;;;;;44.05;23.60;;;-0.90;99.90;;;;;;9969028;29;20057;-91
2020/12/10 21:06:57;;;;;;;41.42;22.73;;;-0.80;99.90;;;;;;9983551;29;20130;-91
2020/12/10 21:11:59;;;;;;;46.90;25.13;;;-0.80;99.90;;;;;;9953913;29;20094;-91
2020/12/10 21:17:01;;;;;;;41.40;23.55;;;-0.80;99.90;;;;;;9973787;29;20177;-90
2020/12/10 21:22:09;;;;;;;37.13;18.40;;;-0.80;99.90;;;;;;9991289;29;20130;-89
2020/12/10 21:27:11;;;;;;;40.22;22.23;;;-0.60;99.90;;;;;;9996918;29;20515;-89
2020/12/10 21:32:12;;;;;;;31.42;19.60;;;-0.60;99.90;;;;;;9982156;29;20150;-90
2020/12/10 21:37:14;;;;;;;32.22;17.88;;;-0.70;99.90;;;;;;9994839;29;20113;-89
2020/12/10 21:42:16;;;;;;;38.65;19.27;;;-0.60;99.90;;;;;;9921316;29;20059;-90
2020/12/10 21:47:18;;;;;;;34.28;18.55;;;-0.60;99.90;;;;;;9976972;29;20499;-90
2020/12/10 21:52:20;;;;;;;28.33;17.58;;;-0.60;99.90;;;;;;9973775;29;20058;-90
2020/12/10 21:57:22;;;;;;;29.08;18.67;;;-0.70;99.90;;;;;;9973588;29;20073;-90
2020/12/10 22:02:24;;;;;;;30.83;18.67;;;-0.60;99.90;;;;;;9972869;29;20059;-90
2020/12/10 22:07:25;;;;;;;27.42;16.45;;;-0.70;99.90;;;;;;9958011;29;20054;-89
2020/12/10 22:12:27;;;;;;;31.83;20.40;;;-0.60;99.90;;;;;;9971698;29;20069;-90
2020/12/10 22:17:28;;;;;;;;;;;-0.70;99.90;;;;;;9987541;29;20058;-90
2020/12/10 22:22:30;;;;;;;27.08;17.73;;;-0.70;99.90;;;;;;9957223;29;19968;-89
2020/12/10 22:27:32;;;;;;;35.53;19.48;;;-0.70;99.90;;;;;;9956847;29;20426;-90
2020/12/10 22:32:33;;;;;;;26.90;17.05;;;-0.70;99.90;;;;;;9972215;29;20059;-90
2020/12/10 22:37:35;;;;;;;;;;;-0.70;99.90;;;;;;9983273;29;20058;-90
2020/12/10 22:42:37;;;;;;;31.27;19.65;;;-0.70;99.90;;;;;;9957183;29;20284;-90
2020/12/10 22:47:38;;;;;;;;;;;-0.70;99.90;;;;;;9993668;29;20065;-90
2020/12/10 22:52:39;;;;;;;32.20;19.48;;;-0.60;99.90;;;;;;9994801;29;20020;-90
2020/12/10 22:57:41;;;;;;;26.17;17.95;;;-0.50;99.90;;;;;;9994083;23;20101;-87
2020/12/10 23:02:43;;;;;;;29.38;19.52;;;-0.50;99.90;;;;;;9938009;29;20499;-87
2020/12/10 23:07:44;;;;;;;31.40;20.13;;;-0.50;99.90;;;;;;9940375;29;20061;-87
2020/12/10 23:12:46;;;;;;;;;;;-0.40;99.90;;;;;;9956179;29;20066;-86
2020/12/10 23:17:47;;;;;;;33.45;20.13;;;-0.40;99.90;;;;;;9985190;29;19948;-87
2020/12/10 23:22:49;;;;;;;28.75;19.08;;;-0.30;99.90;;;;;;9954446;29;20514;-87
2020/12/10 23:27:51;;;;;;;29.90;20.35;;;-0.30;99.90;;;;;;9939967;29;20141;-87
2020/12/10 23:32:53;;;;;;;30.08;20.02;;;-0.40;99.90;;;;;;9940283;29;20065;-87
2020/12/10 23:37:55;;;;;;;28.00;18.88;;;-0.30;99.90;;;;;;9984943;29;20066;-87
2020/12/10 23:42:57;;;;;;;;;;;-0.30;99.90;;;;;;9991862;29;20054;-87
2020/12/10 23:47:59;;;;;;;33.65;20.17;;;-0.30;99.90;;;;;;9991468;29;19971;-87
2020/12/10 23:53:00;;;;;;;27.33;19.75;;;-0.30;99.90;;;;;;10006560;29;20061;-87
2020/12/10 23:58:02;;;;;;;34.45;20.48;;;-0.30;99.90;;;;;;10005748;29;20149;-87
